Latest Weather Observations for Goulburn Airport

IDN60801

Issued at 5:33 am EST Saturday 30 July 2016 (issued every 30 minutes, with the page automatically refreshed every 10 minutes)

About weather observations | Map of weather stations | Latest weather observations for NSW | Other Formats
Station Details ID: 070330 Name: GOULBURN AIRPORT AWS Lat: -34.81 Lon: 149.73 Height: 640.0 m
Data from the previous 72 hours. | See also: Recent months at Goulburn Airport
Date/Time
EST
Temp
°C
App
Temp
°C
Dew
Point
°C
Rel
Hum
%
Delta-T
°C
Wind Press
QNH
hPa
Press
MSL
hPa
Rain since
9am
mm
Dir  Spd
km/h
Gust
km/h
Spd
kts
Gust
kts
30/05:30am 4.3 0.3 3.0 91 0.5 WNW 13 19 7 10 1022.4 1023.6 0.0
30/05:00am 4.3 0.3 3.0 91 0.6 WNW 13 19 7 10 1022.2 1023.4 0.0
30/04:30am 4.4 0.1 3.1 91 0.6 WNW 15 20 8 11 1022.0 1023.1 0.0
30/04:00am 4.4 0.0 2.8 89 0.7 NW 15 20 8 11 1022.1 1023.3 0.0
30/03:30am 4.6 0.2 2.9 89 0.7 NW 15 22 8 12 1022.2 1023.4 0.0
30/03:00am 4.4 -0.9 2.8 89 0.7 WNW 20 24 11 13 1022.1 1023.3 0.0
30/02:30am 4.3 -1.0 2.8 90 0.6 WNW 20 26 11 14 1022.4 1023.6 0.0
30/02:00am 4.6 -0.5 3.1 90 0.6 WNW 19 24 10 13 1022.5 1023.7 0.0
30/01:30am 4.5 -0.2 3.0 90 0.6 WNW 17 28 9 15 1022.6 1023.8 0.0
30/01:00am 4.6 -0.5 2.9 89 0.7 WNW 19 24 10 13 1022.5 1023.7 0.0
30/12:30am 4.7 -0.6 3.0 89 0.7 WNW 20 30 11 16 1022.7 1023.9 0.0
30/12:00am 5.0 -0.7 3.0 87 0.9 WNW 22 30 12 16 1022.6 1023.8 0.0
 
Date/Time
EST
Temp
°C
App
Temp
°C
Dew
Point
°C
Rel
Hum
%
Delta-T
°C
Wind Press
QNH
hPa
Press
MSL
hPa
Rain since
9am
mm
Dir  Spd
km/h
Gust
km/h
Spd
kts
Gust
kts
29/11:30pm 5.3 0.6 3.2 86 0.9 WNW 17 24 9 13 1022.9 1024.1 0.0
29/11:00pm 5.2 0.9 3.1 86 0.9 WNW 15 22 8 12 1023.0 1024.2 0.0
29/10:44pm 5.1 0.4 3.0 86 0.9 WNW 17 24 9 13 1022.7 1023.9 0.0
29/10:39pm 5.0 -0.1 2.9 86 0.9 WNW 19 28 10 15 1022.4 1023.6 0.0
29/10:30pm 5.0 -0.2 2.7 85 1.0 WNW 19 28 10 15 1022.2 1023.4 0.0
29/10:00pm 5.4 0.7 3.3 86 0.9 NW 17 24 9 13 1022.1 1023.3 0.0
29/09:30pm 5.6 -2.1 3.3 85 1.0 WNW 33 43 18 23 1022.1 1023.3 0.0
29/09:00pm 5.9 -0.1 3.1 82 1.2 WNW 24 35 13 19 1022.3 1023.5 0.0
29/08:30pm 6.0 1.2 2.8 80 1.4 WNW 17 24 9 13 1022.4 1023.6 0.0
29/08:00pm 6.0 2.4 3.0 81 1.3 NNW 11 17 6 9 1022.3 1023.5 0.0
29/07:30pm 5.9 2.3 3.1 82 1.2 N 11 15 6 8 1021.7 1022.8 0.0
29/07:00pm 5.8 0.5 3.1 83 1.2 WNW 20 32 11 17 1021.3 1022.5 0.0
29/06:30pm 6.1 -1.7 3.1 81 1.3 WNW 33 43 18 23 1021.2 1022.4 0.0
29/06:00pm 6.2 -1.3 3.4 82 1.2 WNW 32 41 17 22 1020.5 1021.6 0.0
29/05:30pm 6.5 -1.3 3.1 79 1.5 WNW 33 41 18 22 1020.5 1021.6 0.0
29/05:00pm 6.6 1.5 3.2 79 1.5 WNW 19 28 10 15 1020.8 1022.0 0.0
29/04:35pm 6.8 -1.3 3.2 78 1.6 WNW 35 54 19 29 1020.3 1021.4 0.0
29/04:30pm 6.8 -0.9 3.2 78 1.6 WNW 33 46 18 25 1020.3 1021.4 0.0
29/04:22pm 7.0 -0.7 3.3 77 1.6 WNW 33 46 18 25 1020.3 1021.4 0.0
29/04:00pm 7.4 -0.3 3.5 76 1.7 WNW 33 46 18 25 1020.4 1021.5 0.0
29/03:30pm 8.2 0.5 3.3 71 2.2 W 33 44 18 24 1020.1 1021.2 0.0
29/03:00pm 7.9 -0.3 2.6 69 2.3 WNW 35 48 19 26 1020.3 1021.4 0.0
29/02:30pm 8.8 1.1 3.4 69 2.4 WNW 33 46 18 25 1020.2 1021.3 0.0
29/02:00pm 8.4 -0.5 3.3 70 2.3 WNW 39 46 21 25 1020.2 1021.3 0.0
29/01:30pm 8.2 0.1 3.5 72 2.1 WNW 35 46 19 25 1020.5 1021.6 0.0
29/01:00pm 8.1 -0.7 3.4 72 2.1 W 39 50 21 27 1021.1 1022.3 0.0
29/12:30pm 8.5 1.4 3.4 70 2.3 W 30 43 16 23 1021.4 1022.6 0.0
29/12:14pm 7.9 0.8 3.4 73 2.0 W 30 41 16 22 1021.9 1023.0 0.0
29/12:00pm 7.7 0.9 3.0 72 2.1 WNW 28 37 15 20 1022.1 1023.3 0.0
29/11:30am 7.1 0.4 3.5 78 1.6 W 28 35 15 19 1022.6 1023.8 0.0
29/11:00am 7.9 0.5 3.9 76 1.8 WNW 32 39 17 21 1022.6 1023.8 0.0
29/10:47am 7.3 0.6 3.7 78 1.6 WNW 28 46 15 25 1022.7 1023.9 0.0
29/10:30am 6.7 0.7 3.5 80 1.4 WNW 24 33 13 18 1022.9 1024.1 0.0
29/10:00am 6.3 0.3 3.3 81 1.3 WNW 24 33 13 18 1023.5 1024.7 0.0
29/09:30am 5.5 -0.6 2.8 83 1.2 NW 24 30 13 16 1023.6 1024.8 0.0
29/09:00am 5.4 -1.0 3.1 85 1.0 WNW 26 35 14 19 1023.5 1024.7 0.0
29/08:30am 4.9 -2.4 2.3 83 1.1 WNW 30 39 16 21 1023.0 1024.2 0.0
29/08:00am 4.6 -0.8 2.3 85 1.0 NW 20 32 11 17 1023.1 1024.3 0.0
29/07:30am 4.7 -1.4 2.7 87 0.8 WNW 24 32 13 17 1023.3 1024.4 0.0
29/07:00am 4.6 -2.7 2.5 86 0.9 W 30 39 16 21 1023.5 1024.7 0.0
29/06:30am 4.4 -3.5 2.3 86 0.9 WNW 33 41 18 22 1023.0 1024.2 0.0
29/06:00am 4.4 -2.1 2.4 87 0.8 WNW 26 32 14 17 1022.8 1024.0 0.0
29/05:30am 4.3 -3.4 2.3 87 0.8 WNW 32 46 17 25 1022.6 1023.8 0.0
29/05:00am 4.3 -3.3 2.7 89 0.7 WNW 32 39 17 21 1022.6 1023.8 0.0
29/04:30am 4.6 -1.1 3.1 90 0.6 WNW 22 32 12 17 1022.5 1023.7 0.0
29/04:00am 4.7 -1.4 2.6 86 0.9 WNW 24 41 13 22 1022.5 1023.7 0.0
29/03:30am 4.9 -0.8 2.6 85 1.0 WNW 22 32 12 17 1022.5 1023.7 0.0
29/03:00am 4.7 -1.0 2.6 86 0.9 WNW 22 32 12 17 1022.6 1023.8 0.0
29/02:30am 4.7 -1.0 2.6 86 0.9 WNW 22 33 12 18 1022.8 1024.0 0.0
29/02:00am 4.3 -1.5 2.5 88 0.8 WNW 22 39 12 21 1023.3 1024.4 0.0
29/01:52am 4.2 -1.0 2.6 89 0.7 NW 19 39 10 21 1023.3 1024.4 0.0
29/01:47am 3.3 -0.8 2.0 91 0.5 NW 13 20 7 11 1023.3 1024.4 0.0
29/01:30am 3.0 -1.2 1.4 89 0.6 NW 13 17 7 9 1023.1 1024.3 0.0
29/01:00am 3.5 -1.1 1.7 88 0.7 NW 15 20 8 11 1023.5 1024.7 0.0
29/12:30am 4.1 -1.2 2.1 87 0.8 NW 19 24 10 13 1023.7 1024.9 0.0
29/12:00am 4.0 -1.9 2.0 87 0.8 WNW 22 30 12 16 1023.7 1024.9 0.0
 
Date/Time
EST
Temp
°C
App
Temp
°C
Dew
Point
°C
Rel
Hum
%
Delta-T
°C
Wind Press
QNH
hPa
Press
MSL
hPa
Rain since
9am
mm
Dir  Spd
km/h
Gust
km/h
Spd
kts
Gust
kts
28/11:30pm 4.3 -1.9 2.2 86 0.9 WNW 24 35 13 19 1023.8 1025.0 0.0
28/11:00pm 4.3 -1.9 2.0 85 0.9 WNW 24 32 13 17 1023.6 1024.8 0.0
28/10:30pm 4.5 -2.5 2.0 84 1.0 WNW 28 33 15 18 1023.6 1024.8 0.0
28/10:00pm 4.4 -2.2 1.9 84 1.0 WNW 26 32 14 17 1023.7 1024.9 0.0
28/09:30pm 4.4 -0.5 1.8 83 1.1 WNW 17 26 9 14 1024.1 1025.3 0.0
28/09:00pm 4.8 -1.1 2.0 82 1.2 WNW 22 32 12 17 1024.1 1025.3 0.0
28/08:30pm 4.9 -1.3 2.1 82 1.2 WNW 24 35 13 19 1024.2 1025.4 0.0
28/08:00pm 5.3 -1.2 2.5 82 1.2 WNW 26 39 14 21 1023.9 1025.1 0.0
28/07:30pm 5.8 -1.1 2.4 79 1.4 WNW 28 43 15 23 1023.9 1025.1 0.0
28/07:00pm 6.2 -1.4 3.0 80 1.4 WNW 32 43 17 23 1023.9 1025.1 0.0
28/06:43pm 6.4 -0.8 3.0 79 1.5 WNW 30 43 16 23 1024.0 1025.2 0.0
28/06:30pm 6.4 0.3 2.9 78 1.5 WNW 24 32 13 17 1023.8 1025.0 0.0
28/06:00pm 6.4 0.7 3.0 79 1.5 WNW 22 30 12 16 1023.7 1024.9 0.0
28/05:30pm 6.5 -0.3 2.9 78 1.6 WNW 28 37 15 20 1023.5 1024.7 0.0
28/05:00pm 7.1 2.8 3.2 76 1.7 WNW 15 26 8 14 1023.5 1024.7 0.0
28/04:30pm 7.3 -0.2 3.2 75 1.8 WNW 32 41 17 22 1023.1 1024.3 0.0
28/04:00pm 7.5 1.9 3.4 75 1.8 NW 22 33 12 18 1022.8 1024.0 0.0
28/03:30pm 7.6 0.5 3.3 74 1.9 WNW 30 43 16 23 1022.8 1024.0 0.0
28/03:00pm 7.7 0.2 3.2 73 2.0 W 32 46 17 25 1023.0 1024.2 0.0
28/02:48pm 7.8 1.0 3.1 72 2.1 WNW 28 41 15 22 1023.0 1024.2 0.0
28/02:30pm 7.8 1.8 3.5 74 1.9 NW 24 43 13 23 1022.9 1024.1 0.0
28/02:06pm 7.8 0.1 3.3 73 2.0 WNW 33 52 18 28 1023.0 1024.2 0.0
28/02:00pm 7.8 -0.3 3.1 72 2.1 WNW 35 48 19 26 1022.6 1023.8 0.0
28/01:58pm 7.6 -0.5 3.1 73 2.0 WNW 35 48 19 26 1022.6 1023.8 0.0
28/01:38pm 7.9 0.2 3.4 73 2.0 WNW 33 54 18 29 1022.8 1024.0 0.0
28/01:30pm 8.3 1.3 4.1 75 1.9 WNW 30 41 16 22 1023.0 1024.2 0.0
28/01:00pm 7.8 0.1 3.3 73 2.0 WNW 33 48 18 26 1023.1 1024.3 0.0
28/12:30pm 7.9 -0.2 3.0 71 2.2 WNW 35 46 19 25 1023.4 1024.6 0.0
28/12:18pm 8.0 -0.1 3.1 71 2.2 WNW 35 46 19 25 1023.6 1024.8 0.0
28/12:00pm 8.1 -0.7 3.6 73 2.0 WNW 39 50 21 27 1023.7 1024.9 0.0
28/11:30am 8.3 -0.8 3.9 74 2.0 WNW 41 52 22 28 1023.9 1025.1 0.0
28/11:00am 7.5 -2.1 3.4 75 1.8 WNW 43 54 23 29 1024.0 1025.2 0.0
28/10:32am 7.0 -1.9 2.9 75 1.8 WNW 39 46 21 25 1024.4 1025.6 0.0
28/10:30am 7.1 -1.3 3.5 78 1.6 WNW 37 46 20 25 1024.4 1025.6 0.0
28/10:00am 5.8 0.0 2.4 79 1.4 NW 22 32 12 17 1024.6 1025.9 0.0
28/09:30am 5.1 -1.1 2.3 82 1.2 NW 24 30 13 16 1024.2 1025.4 0.0
28/09:00am 4.6 -0.9 2.1 84 1.0 NW 20 28 11 15 1024.4 1025.6 0.4
28/08:30am 4.4 -1.8 2.3 86 0.9 WNW 24 32 13 17 1024.4 1025.6 0.4
28/08:00am 4.1 -2.1 2.0 86 0.9 WNW 24 30 13 16 1024.2 1025.4 0.4
28/07:30am 4.1 -0.8 2.1 87 0.8 WNW 17 22 9 12 1024.2 1025.4 0.4
28/07:00am 4.1 -1.4 2.1 87 0.8 WNW 20 28 11 15 1023.9 1025.1 0.4
28/06:30am 4.0 -0.9 2.0 87 0.8 WNW 17 20 9 11 1023.5 1024.7 0.4
28/06:00am 3.8 0.4 1.8 87 0.8 WNW 9 19 5 10 1023.3 1024.4 0.4
28/05:30am 3.9 0.1 1.8 86 0.9 NW 11 17 6 9 1022.6 1023.8 0.4
28/05:00am 3.9 -1.4 1.8 86 0.9 WNW 19 26 10 14 1022.2 1023.4 0.4
28/04:40am 4.0 -0.9 1.7 85 0.9 NW 17 24 9 13 1021.9 1023.0 0.4
28/04:30am 4.1 -0.8 2.1 87 0.8 WNW 17 26 9 14 1021.7 1022.8 0.4
28/04:00am 4.1 -0.8 2.0 86 0.9 WNW 17 28 9 15 1021.4 1022.6 0.4
28/03:30am 4.5 -2.4 2.4 86 0.9 WNW 28 39 15 21 1020.9 1022.1 0.4
28/03:00am 4.6 0.8 2.0 83 1.1 NW 11 22 6 12 1021.1 1022.3 0.4
28/02:30am 4.8 -0.6 2.2 83 1.1 NW 20 24 11 13 1021.1 1022.3 0.4
28/02:00am 5.1 -0.9 3.1 87 0.9 WNW 24 30 13 16 1021.4 1022.6 0.4
28/01:30am 4.9 -0.7 3.2 89 0.7 WNW 22 30 12 16 1021.6 1022.7 0.4
28/01:01am 5.6 0.6 3.6 87 0.9 NW 19 26 10 14 1021.6 1022.7 0.4
28/01:00am 5.6 0.6 3.6 87 0.9 NW 19 26 10 14 1021.7 1022.8 0.4
28/12:30am 6.1 2.8 4.7 91 0.6 N 11 17 6 9 1021.8 1022.9 0.4
28/12:00am 6.3 1.5 4.5 88 0.8 W 19 33 10 18 1021.8 1022.9 0.4
 
Date/Time
EST
Temp
°C
App
Temp
°C
Dew
Point
°C
Rel
Hum
%
Delta-T
°C
Wind Press
QNH
hPa
Press
MSL
hPa
Rain since
9am
mm
Dir  Spd
km/h
Gust
km/h
Spd
kts
Gust
kts
27/11:30pm 6.3 0.1 4.5 88 0.8 W 26 37 14 20 1021.6 1022.7 0.4
27/11:11pm 6.2 0.0 4.5 89 0.8 W 26 35 14 19 1020.9 1022.1 0.4
27/11:10pm 6.2 0.0 4.4 88 0.8 W 26 33 14 18 1021.0 1022.2 0.4
27/11:00pm 6.4 -0.5 4.4 87 0.9 W 30 41 16 22 1020.8 1022.0 0.4
27/10:30pm 6.4 0.6 4.4 87 0.9 WNW 24 39 13 21 1020.4 1021.5 0.4
27/10:00pm 6.4 0.9 4.2 86 1.0 NW 22 33 12 18 1019.9 1021.0 0.4
27/09:50pm 6.4 1.5 4.2 86 1.0 NW 19 28 10 15 1020.0 1021.1 0.4
27/09:37pm 6.3 0.5 4.3 87 0.9 WNW 24 35 13 19 1020.0 1021.1 0.4
27/09:30pm 6.2 0.4 4.4 88 0.8 WNW 24 33 13 18 1020.0 1021.1 0.4
27/09:00pm 6.4 1.5 4.9 90 0.7 W 20 35 11 19 1020.4 1021.5 0.4
27/08:30pm 6.5 2.6 5.5 93 0.5 WNW 15 28 8 15 1020.3 1021.4 0.0
27/08:00pm 6.5 2.2 5.3 92 0.5 W 17 26 9 14 1019.6 1020.8 0.0
27/07:30pm 6.7 0.2 4.7 87 0.9 W 28 37 15 20 1019.2 1020.3 0.0
27/07:25pm 6.6 -0.3 4.4 86 1.0 W 30 39 16 21 1019.2 1020.3 0.0
27/07:00pm 6.4 -1.2 3.9 84 1.1 W 33 46 18 25 1018.6 1019.7 0.0
27/06:30pm 6.5 -1.6 3.1 79 1.5 W 35 44 19 24 1018.0 1019.2 0.0
27/06:00pm 6.7 -0.9 2.6 75 1.8 W 32 46 17 25 1017.6 1018.7 0.0
27/05:30pm 7.0 0.2 3.1 76 1.7 WNW 28 39 15 21 1017.4 1018.5 0.0
27/05:00pm 7.8 0.3 3.5 74 1.9 W 32 39 17 21 1016.8 1017.9 0.0
27/04:30pm 8.0 -1.6 3.5 73 2.0 W 43 54 23 29 1016.0 1017.1 0.0
27/04:00pm 8.4 0.5 4.6 77 1.7 W 35 52 19 28 1015.5 1016.6 0.0
27/03:59pm 8.5 1.0 4.7 77 1.7 W 33 52 18 28 1015.5 1016.6 0.0
27/03:33pm 8.6 1.4 5.0 78 1.7 WNW 32 43 17 23 1015.1 1016.1 0.0
27/03:30pm 8.3 0.8 4.5 77 1.7 WNW 33 46 18 25 1015.2 1016.2 0.0
27/03:06pm 8.3 1.5 4.9 79 1.6 WNW 30 48 16 26 1014.9 1015.9 0.0
27/03:00pm 9.9 4.2 6.6 80 1.6 W 26 37 14 20 1015.0 1016.0 0.0
27/02:55pm 8.6 1.9 5.4 80 1.5 WNW 30 43 16 23 1014.9 1015.9 0.0
27/02:30pm 8.7 0.6 5.3 79 1.6 WNW 37 48 20 26 1014.4 1015.5 0.0
27/02:00pm 9.0 0.5 5.2 77 1.8 WNW 39 52 21 28 1014.1 1015.2 0.0
27/01:30pm 9.3 0.0 4.9 74 2.0 WNW 43 61 23 33 1013.5 1014.5 0.0
27/01:21pm 9.1 0.6 5.3 77 1.8 WNW 39 57 21 31 1013.6 1014.6 0.0
27/01:00pm 8.2 -1.2 4.6 78 1.6 WNW 43 54 23 29 1013.4 1014.4 0.0
27/12:40pm 8.1 -0.4 5.0 81 1.4 W 39 50 21 27 1013.6 1014.6 0.0
27/12:30pm 7.7 -0.8 5.2 84 1.2 W 39 50 21 27 1013.8 1014.8 0.0
27/12:00pm 8.0 -0.3 6.1 88 0.9 W 39 57 21 31 1013.3 1014.3 0.0
27/11:48am 7.8 -1.5 5.1 83 1.2 WNW 43 63 23 34 1013.0 1014.1 0.0
27/11:47am 7.9 -1.0 5.2 83 1.2 WNW 41 63 22 34 1013.0 1014.1 0.0
27/11:30am 7.6 -1.8 4.7 82 1.3 W 43 56 23 30 1012.8 1013.9 0.0
27/11:19am 8.4 -1.4 5.2 80 1.5 W 46 65 25 35 1012.6 1013.6 0.0
27/11:08am 7.8 -2.1 4.7 81 1.4 WNW 46 65 25 35 1012.6 1013.6 0.0
27/11:00am 7.2 -2.4 4.3 82 1.3 W 44 57 24 31 1012.6 1013.6 0.0
27/10:36am 6.9 -1.6 5.2 89 0.8 WNW 39 57 21 31 1012.7 1013.7 0.0
27/10:30am 6.9 -1.2 5.4 90 0.7 W 37 50 20 27 1012.7 1013.7 0.0
27/10:01am 7.2 -1.4 4.5 83 1.2 WNW 39 61 21 33 1012.3 1013.3 0.0
27/10:00am 7.3 -1.2 5.0 85 1.1 WNW 39 54 21 29 1012.4 1013.4 0.0
27/09:45am 7.2 -1.0 4.5 83 1.2 WNW 37 56 20 30 1012.1 1013.1 0.0
27/09:30am 6.7 -1.2 4.5 86 1.0 WNW 35 52 19 28 1012.1 1013.1 0.0
27/09:13am 6.5 -1.0 4.3 86 1.0 WNW 33 46 18 25 1011.9 1012.9 0.0
27/09:00am 6.5 -1.8 4.0 84 1.1 WNW 37 50 20 27 1011.6 1012.6 3.8
27/08:52am 6.6 -1.3 4.3 85 1.0 WNW 35 46 19 25 1011.6 1012.6 3.8
27/08:30am 6.2 -1.6 4.8 91 0.6 WNW 35 56 19 30 1011.4 1012.5 3.8
27/08:26am 6.2 -1.0 5.0 92 0.5 WNW 32 52 17 28 1011.2 1012.2 3.6
27/08:00am 5.9 0.6 4.9 93 0.5 WNW 22 30 12 16 1011.1 1012.1 3.2
27/07:30am 6.1 1.2 4.9 92 0.5 WNW 20 32 11 17 1011.0 1012.0 2.2
27/07:00am 6.4 -0.4 4.9 90 0.7 WNW 30 41 16 22 1010.6 1011.6 1.0
27/06:58am 6.4 -0.4 4.9 90 0.7 WNW 30 41 16 22 1010.5 1011.5 1.0
27/06:30am 7.0 -0.9 4.3 83 1.2 NW 35 48 19 26 1010.1 1011.0 0.4
27/06:00am 7.1 0.2 4.4 83 1.2 NW 30 39 16 21 1010.0 1010.9 0.2

Other Formats:

Comma delimited format used in spreadsheet applications
http://www.bom.gov.au/fwo/IDN60801/IDN60801.95716.axf

JavaScript Object Notation format (JSON) in row-major order
http://www.bom.gov.au/fwo/IDN60801/IDN60801.95716.json